Carmarthen, United Kingdom
Current Conditions -  °F | °C
As of 3:50 PM on Thursday 30 Oct 2014 (Local Time) from EGOP Reporting Station
Broken Clouds Broken Clouds  
Wind Chill: 61°   Ceiling: 1600
Heat Index: 61°   Visibility: 4mi
Dew Point: 59°   Wind: 18mph
Humidity: 94%   Direction: 180°S
Pressure: 29.97"   Gusts: NA
Location:  51.86°N, 4.31°W
Report Text: EGOP 301550Z AUTO 18016KT 7000 // BKN016/// SCT023/// BKN046/// 16/15 Q1015
Loading
Personal Weather Stations






























Interactive Weather Map
Tropical Storm Tracking
New forecast layout! Learn more

10-Day Weather Forecast

Advertisements
Track Severe Weather on mobile